Time;durP1;ratioP1;P1;durP2;ratioP2;P2;SDS_P1;SDS_P2;PMS_P1;PMS_P2;Temp;Humidity;BMP_temperature;BMP_pressure;BME280_temperature;BME280_humidity;BME280_pressure;Samples;Min_cycle;Max_cycle;Signal;HPM_P1;HPM_P2
2021/10/22 00:01:42;;;;;;;10.43;1.48;;;;;;;;;;5082886;28;20075;-61
2021/10/22 00:04:08;;;;;;;18.73;2.60;;;;;;;;;;5076171;28;20037;-61
2021/10/22 00:06:34;;;;;;;16.65;2.50;;;;;;;;;;5083067;28;20045;-61
2021/10/22 00:09:00;;;;;;;11.23;2.38;;;;;;;;;;5075684;28;20045;-61
2021/10/22 00:11:26;;;;;;;14.90;2.20;;;;;;;;;;5082120;28;20040;-61
2021/10/22 00:13:52;;;;;;;23.60;3.38;;;;;;;;;;5080613;28;20059;-61
2021/10/22 00:16:18;;;;;;;15.95;2.63;;;;;;;;;;5082138;28;20040;-61
2021/10/22 00:18:45;;;;;;;18.30;3.42;;;;;;;;;;5079818;28;20509;-61
2021/10/22 00:21:11;;;;;;;13.45;2.58;;;;;;;;;;5078037;28;20045;-63
2021/10/22 00:23:37;;;;;;;13.60;2.67;;;;;;;;;;5067084;28;20080;-61
2021/10/22 00:26:03;;;;;;;19.02;3.63;;;;;;;;;;5074092;28;20136;-62
2021/10/22 00:28:29;;;;;;;25.02;3.05;;;;;;;;;;5070788;28;20071;-62
2021/10/22 00:30:56;;;;;;;14.77;3.08;;;;;;;;;;5075425;28;20112;-62
2021/10/22 00:33:22;;;;;;;8.50;2.38;;;;;;;;;;5067923;28;20052;-62
2021/10/22 00:35:49;;;;;;;11.57;2.63;;;;;;;;;;5067207;28;20041;-62
2021/10/22 00:38:15;;;;;;;18.85;2.97;;;;;;;;;;5067533;28;20045;-62
2021/10/22 00:40:41;;;;;;;15.30;2.28;;;;;;;;;;5066943;28;20049;-62
2021/10/22 00:43:07;;;;;;;20.70;2.65;;;;;;;;;;5067959;28;20041;-62
2021/10/22 00:45:33;;;;;;;13.88;2.53;;;;;;;;;;5066766;28;20485;-63
2021/10/22 00:48:00;;;;;;;15.65;3.00;;;;;;;;;;5066250;28;20108;-62
2021/10/22 00:50:27;;;;;;;15.10;2.58;;;;;;;;;;5065293;28;20053;-62
2021/10/22 00:52:53;;;;;;;11.57;2.55;;;;;;;;;;5067299;28;20041;-62
2021/10/22 00:55:19;;;;;;;15.88;3.47;;;;;;;;;;5066734;28;20049;-62
2021/10/22 00:57:46;;;;;;;9.68;2.10;;;;;;;;;;5076173;28;20107;-62
2021/10/22 01:00:12;;;;;;;10.43;2.90;;;;;;;;;;5066471;28;20049;-62
2021/10/22 01:02:40;;;;;;;15.50;2.75;;;;;;;;;;5066667;28;20041;-62
2021/10/22 01:08:32;;;;;;;14.43;2.60;;;;;;;;;;5072795;28;20475;-62
2021/10/22 01:11:01;;;;;;;15.60;2.08;;;;;;;;;;5066233;28;20053;-62
2021/10/22 01:13:28;;;;;;;10.45;1.90;;;;;;;;;;5070366;28;20069;-62
2021/10/22 01:15:54;;;;;;;12.50;3.58;;;;;;;;;;5066541;28;20099;-62
2021/10/22 01:18:20;;;;;;;11.13;2.33;;;;;;;;;;5066710;28;20071;-62
2021/10/22 01:20:46;;;;;;;16.88;2.65;;;;;;;;;;5068455;28;20048;-61
2021/10/22 01:23:13;;;;;;;12.73;2.40;;;;;;;;;;5068550;28;20101;-61
2021/10/22 01:25:39;;;;;;;16.92;3.25;;;;;;;;;;5074701;28;20045;-61
2021/10/22 01:28:06;;;;;;;15.05;2.15;;;;;;;;;;5069419;28;20044;-61
2021/10/22 01:30:32;;;;;;;13.55;2.35;;;;;;;;;;5066147;28;20093;-60
2021/10/22 01:33:03;;;;;;;14.82;2.38;;;;;;;;;;5065026;28;20128;-61
2021/10/22 01:35:29;;;;;;;19.10;3.30;;;;;;;;;;5076642;28;20045;-61
2021/10/22 01:37:55;;;;;;;10.40;1.77;;;;;;;;;;5066473;28;20045;-62
2021/10/22 01:40:21;;;;;;;12.70;3.35;;;;;;;;;;5077446;28;20041;-62
2021/10/22 01:42:48;;;;;;;14.88;2.63;;;;;;;;;;5070840;28;20127;-62
2021/10/22 01:45:14;;;;;;;6.78;2.17;;;;;;;;;;5068173;28;20041;-62
2021/10/22 01:47:40;;;;;;;12.32;2.50;;;;;;;;;;5066456;28;20033;-62
2021/10/22 01:50:07;;;;;;;11.57;3.33;;;;;;;;;;5065905;28;20062;-62
2021/10/22 01:52:33;;;;;;;16.15;2.70;;;;;;;;;;5066234;28;20489;-62
2021/10/22 01:55:00;;;;;;;11.48;2.10;;;;;;;;;;5067873;28;20052;-62
2021/10/22 01:57:26;;;;;;;16.65;2.50;;;;;;;;;;5065522;28;20051;-62
2021/10/22 01:59:52;;;;;;;10.88;2.05;;;;;;;;;;5080238;28;20071;-62
2021/10/22 02:02:18;;;;;;;11.45;2.90;;;;;;;;;;5082734;28;20055;-61
2021/10/22 02:04:44;;;;;;;12.15;2.95;;;;;;;;;;5065860;28;20052;-61
2021/10/22 02:07:11;;;;;;;11.32;2.10;;;;;;;;;;5067331;28;20124;-61
2021/10/22 02:09:37;;;;;;;18.65;3.10;;;;;;;;;;5079203;28;20371;-61
2021/10/22 02:12:04;;;;;;;14.40;3.38;;;;;;;;;;5081961;28;20068;-61
2021/10/22 02:14:30;;;;;;;18.88;2.63;;;;;;;;;;5065304;28;20056;-62
2021/10/22 02:16:56;;;;;;;14.73;3.92;;;;;;;;;;5069244;28;20045;-62
2021/10/22 02:19:22;;;;;;;13.60;2.90;;;;;;;;;;5069882;28;20048;-62
2021/10/22 02:21:48;;;;;;;16.90;2.33;;;;;;;;;;5071954;28;20044;-62
2021/10/22 02:24:14;;;;;;;11.65;2.05;;;;;;;;;;5069841;28;20059;-62
2021/10/22 02:26:40;;;;;;;10.98;2.30;;;;;;;;;;5064571;28;20041;-61
2021/10/22 02:29:06;;;;;;;18.27;4.10;;;;;;;;;;5064808;28;20112;-62
2021/10/22 02:31:32;;;;;;;9.98;2.90;;;;;;;;;;5065985;28;20085;-62
2021/10/22 02:33:58;;;;;;;12.23;2.47;;;;;;;;;;5068827;28;20098;-61
2021/10/22 02:36:24;;;;;;;11.13;1.98;;;;;;;;;;5065052;28;20142;-62
2021/10/22 02:38:50;;;;;;;26.13;4.05;;;;;;;;;;5076880;28;20037;-62
2021/10/22 02:41:16;;;;;;;14.32;2.53;;;;;;;;;;5064654;28;20041;-61
2021/10/22 02:43:42;;;;;;;10.40;2.10;;;;;;;;;;5071183;28;20048;-61
2021/10/22 02:46:08;;;;;;;21.67;3.17;;;;;;;;;;5066158;28;20041;-61
2021/10/22 02:48:34;;;;;;;11.45;2.58;;;;;;;;;;5078151;28;20044;-61
2021/10/22 02:51:01;;;;;;;14.63;3.60;;;;;;;;;;5064125;28;20048;-62
2021/10/22 02:53:27;;;;;;;16.35;2.38;;;;;;;;;;5063728;28;20045;-61
2021/10/22 02:55:53;;;;;;;15.02;3.08;;;;;;;;;;5069518;28;20044;-61
2021/10/22 02:58:19;;;;;;;15.52;2.50;;;;;;;;;;5074404;28;20104;-61
2021/10/22 03:00:45;;;;;;;22.52;3.90;;;;;;;;;;5081487;28;20037;-61
2021/10/22 03:03:11;;;;;;;15.98;2.97;;;;;;;;;;5065739;28;20607;-61
2021/10/22 03:05:37;;;;;;;16.58;3.33;;;;;;;;;;5064411;28;20574;-61
2021/10/22 03:08:03;;;;;;;11.00;2.17;;;;;;;;;;5065263;28;20489;-62
2021/10/22 03:10:29;;;;;;;11.20;2.28;;;;;;;;;;5063999;28;20072;-62
2021/10/22 03:12:55;;;;;;;16.85;2.67;;;;;;;;;;5065645;28;20044;-61
2021/10/22 03:15:21;;;;;;;12.93;2.42;;;;;;;;;;5064497;28;20071;-61
2021/10/22 03:17:47;;;;;;;12.90;2.72;;;;;;;;;;5065363;28;20083;-61
2021/10/22 03:20:14;;;;;;;14.73;2.38;;;;;;;;;;5063120;28;20045;-62
2021/10/22 03:22:40;;;;;;;13.48;2.25;;;;;;;;;;5067948;28;20123;-61
2021/10/22 03:25:07;;;;;;;12.95;2.20;;;;;;;;;;5072463;28;20055;-61
2021/10/22 03:27:34;;;;;;;9.07;2.40;;;;;;;;;;5064344;28;20287;-61
2021/10/22 03:30:00;;;;;;;11.55;2.17;;;;;;;;;;5065013;28;20061;-61
2021/10/22 03:32:26;;;;;;;14.95;2.65;;;;;;;;;;5063974;28;20041;-61
2021/10/22 03:34:52;;;;;;;11.98;2.85;;;;;;;;;;5063846;28;20130;-62
2021/10/22 03:37:18;;;;;;;15.98;2.95;;;;;;;;;;5074172;28;20053;-62
2021/10/22 03:39:44;;;;;;;13.00;2.40;;;;;;;;;;5063725;28;20045;-61
2021/10/22 03:42:11;;;;;;;18.30;3.05;;;;;;;;;;5078805;28;20037;-61
2021/10/22 03:44:37;;;;;;;21.50;3.05;;;;;;;;;;5072271;28;20123;-61
2021/10/22 03:47:04;;;;;;;18.33;2.55;;;;;;;;;;5066541;28;20048;-61
2021/10/22 03:49:30;;;;;;;20.52;3.22;;;;;;;;;;5089447;28;20045;-61
2021/10/22 03:51:56;;;;;;;15.00;2.88;;;;;;;;;;5078150;28;20044;-61
2021/10/22 03:54:22;;;;;;;18.63;3.08;;;;;;;;;;5069409;28;20068;-61
2021/10/22 03:56:48;;;;;;;18.02;2.95;;;;;;;;;;5063712;28;20487;-61
2021/10/22 03:59:16;;;;;;;17.83;2.47;;;;;;;;;;5063805;28;20170;-60
2021/10/22 04:01:43;;;;;;;15.52;2.47;;;;;;;;;;5077147;28;20048;-61
2021/10/22 04:04:09;;;;;;;12.70;2.10;;;;;;;;;;5075699;28;20048;-61
2021/10/22 04:06:35;;;;;;;16.85;2.55;;;;;;;;;;5072255;28;20052;-61
2021/10/22 04:09:01;;;;;;;17.52;3.22;;;;;;;;;;5067879;28;20044;-61
2021/10/22 04:11:27;;;;;;;15.13;2.08;;;;;;;;;;5067277;28;20100;-61
2021/10/22 04:13:53;;;;;;;13.40;3.85;;;;;;;;;;5069370;28;20048;-61
2021/10/22 04:16:19;;;;;;;13.30;2.42;;;;;;;;;;5071771;28;20056;-61
2021/10/22 04:18:45;;;;;;;11.77;1.70;;;;;;;;;;5066392;28;20048;-60
2021/10/22 04:21:12;;;;;;;8.85;2.20;;;;;;;;;;5067407;28;20045;-61
2021/10/22 04:23:38;;;;;;;13.80;3.40;;;;;;;;;;5076901;28;20108;-61
2021/10/22 04:26:04;;;;;;;6.53;1.77;;;;;;;;;;5068234;28;20048;-61
2021/10/22 04:28:30;;;;;;;14.13;2.33;;;;;;;;;;5066946;28;20040;-62
2021/10/22 04:30:56;;;;;;;12.38;1.77;;;;;;;;;;5067004;28;20071;-61
2021/10/22 04:33:22;;;;;;;7.90;1.20;;;;;;;;;;5069723;28;20049;-61
2021/10/22 04:35:48;;;;;;;24.02;2.45;;;;;;;;;;5068418;28;20057;-61
2021/10/22 04:40:59;;;;;;;11.40;1.90;;;;;;;;;;5068589;28;20052;-61
2021/10/22 04:43:25;;;;;;;11.98;2.45;;;;;;;;;;5068871;28;20051;-61
2021/10/22 04:45:52;;;;;;;14.65;1.98;;;;;;;;;;5076617;28;20044;-61
2021/10/22 04:48:19;;;;;;;11.88;2.47;;;;;;;;;;5067201;28;20429;-61
2021/10/22 04:50:49;;;;;;;6.93;1.77;;;;;;;;;;5067026;28;20051;-61
2021/10/22 04:53:15;;;;;;;21.95;3.20;;;;;;;;;;5070881;28;20072;-60
2021/10/22 04:55:42;;;;;;;10.85;2.03;;;;;;;;;;5069827;28;20048;-61
2021/10/22 04:58:08;;;;;;;11.50;1.73;;;;;;;;;;5067046;28;20132;-61
2021/10/22 05:00:34;;;;;;;9.38;1.83;;;;;;;;;;5066541;28;20037;-61
2021/10/22 05:03:00;;;;;;;15.07;2.30;;;;;;;;;;5067238;28;20049;-61
2021/10/22 05:05:26;;;;;;;8.77;1.38;;;;;;;;;;5068345;28;20092;-61
2021/10/22 05:07:53;;;;;;;11.55;2.63;;;;;;;;;;5066582;28;20045;-62
2021/10/22 05:10:19;;;;;;;9.68;1.88;;;;;;;;;;5066806;28;20049;-61
2021/10/22 05:12:45;;;;;;;10.68;1.58;;;;;;;;;;5068319;28;20049;-61
2021/10/22 05:15:11;;;;;;;9.88;2.20;;;;;;;;;;5071044;28;20061;-61
2021/10/22 05:17:37;;;;;;;14.13;1.88;;;;;;;;;;5065980;28;20063;-61
2021/10/22 05:20:04;;;;;;;6.45;2.00;;;;;;;;;;5079023;28;20051;-62
2021/10/22 05:22:31;;;;;;;10.27;2.22;;;;;;;;;;5070773;28;20032;-62
2021/10/22 05:24:57;;;;;;;6.20;1.75;;;;;;;;;;5066016;28;20374;-61
2021/10/22 05:27:23;;;;;;;7.72;2.00;;;;;;;;;;5066471;28;20051;-61
2021/10/22 05:29:49;;;;;;;17.75;3.22;;;;;;;;;;5073343;28;20053;-61
2021/10/22 05:32:15;;;;;;;13.80;2.92;;;;;;;;;;5076300;28;20112;-62
2021/10/22 05:34:41;;;;;;;12.10;2.13;;;;;;;;;;5067102;28;20064;-61
2021/10/22 05:37:07;;;;;;;10.07;2.20;;;;;;;;;;5072010;28;20062;-61
2021/10/22 05:39:33;;;;;;;14.70;2.08;;;;;;;;;;5077433;28;20040;-62
2021/10/22 05:41:59;;;;;;;14.85;1.95;;;;;;;;;;5068173;28;20040;-62
2021/10/22 05:44:26;;;;;;;10.65;1.63;;;;;;;;;;5065738;28;20043;-62
2021/10/22 05:46:53;;;;;;;6.03;1.63;;;;;;;;;;5065844;28;20053;-62
2021/10/22 05:49:20;;;;;;;12.50;2.90;;;;;;;;;;5065818;28;20450;-62
2021/10/22 05:51:46;;;;;;;8.93;1.73;;;;;;;;;;5071416;28;20091;-62
2021/10/22 05:54:12;;;;;;;7.93;1.75;;;;;;;;;;5066016;28;20064;-62
2021/10/22 05:56:39;;;;;;;14.65;2.03;;;;;;;;;;5066217;28;20044;-62
2021/10/22 05:59:05;;;;;;;13.90;2.13;;;;;;;;;;5077624;28;20047;-62
2021/10/22 06:01:31;;;;;;;11.13;2.42;;;;;;;;;;5073366;28;20061;-62
2021/10/22 06:03:57;;;;;;;15.10;2.10;;;;;;;;;;5079853;28;20049;-62
2021/10/22 06:06:23;;;;;;;10.05;2.45;;;;;;;;;;5065829;28;20469;-62
2021/10/22 06:08:50;;;;;;;10.43;2.33;;;;;;;;;;5068097;28;20037;-62
2021/10/22 06:11:17;;;;;;;10.77;2.75;;;;;;;;;;5072865;28;20044;-62
2021/10/22 06:13:44;;;;;;;17.08;3.05;;;;;;;;;;5083206;28;20040;-62
2021/10/22 06:16:11;;;;;;;13.15;2.50;;;;;;;;;;5082458;28;20036;-62
2021/10/22 06:18:45;;;;;;;13.63;2.23;;;;;;;;;;5070840;28;20649;-62
2021/10/22 06:21:19;;;;;;;15.57;2.17;;;;;;;;;;5073956;28;20532;-62
2021/10/22 06:23:55;;;;;;;14.52;2.20;;;;;;;;;;5076365;28;20032;-60
2021/10/22 06:26:23;;;;;;;7.75;2.03;;;;;;;;;;5078979;28;20045;-61
2021/10/22 06:28:50;;;;;;;16.67;2.13;;;;;;;;;;5079357;28;20040;-61
2021/10/22 06:31:16;;;;;;;19.83;3.63;;;;;;;;;;5084159;28;20089;-60
2021/10/22 06:33:42;;;;;;;13.20;2.30;;;;;;;;;;5076919;28;20041;-60
2021/10/22 06:36:08;;;;;;;16.25;2.17;;;;;;;;;;5070705;28;20049;-60
2021/10/22 06:38:34;;;;;;;14.90;2.53;;;;;;;;;;5081253;28;20055;-60
2021/10/22 06:41:00;;;;;;;11.63;2.38;;;;;;;;;;5075690;28;20040;-60
2021/10/22 06:43:26;;;;;;;16.92;4.03;;;;;;;;;;5082619;28;20481;-60
2021/10/22 06:45:53;;;;;;;11.80;2.20;;;;;;;;;;5072655;28;20045;-60
2021/10/22 06:48:19;;;;;;;15.30;2.13;;;;;;;;;;5081897;28;20032;-60
2021/10/22 06:50:46;;;;;;;11.43;2.85;;;;;;;;;;5070493;28;20067;-59
2021/10/22 06:53:12;;;;;;;16.47;2.47;;;;;;;;;;5070935;28;20045;-60
2021/10/22 06:55:38;;;;;;;10.90;2.60;;;;;;;;;;5079699;28;20299;-60
2021/10/22 06:58:05;;;;;;;20.17;3.22;;;;;;;;;;5073052;28;20063;-59
2021/10/22 07:00:31;;;;;;;28.63;3.72;;;;;;;;;;5082734;28;20083;-60
2021/10/22 07:02:58;;;;;;;17.92;3.33;;;;;;;;;;5080324;28;20107;-60
2021/10/22 07:07:51;;;;;;;21.13;3.42;;;;;;;;;;5078748;28;20053;-59
2021/10/22 07:10:17;;;;;;;11.13;1.65;;;;;;;;;;5081034;28;20059;-59
2021/10/22 07:12:43;;;;;;;8.82;1.65;;;;;;;;;;5076058;28;20048;-59
2021/10/22 07:15:09;;;;;;;10.65;1.65;;;;;;;;;;5074337;28;20131;-60
2021/10/22 07:17:35;;;;;;;13.32;3.85;;;;;;;;;;5077486;28;20040;-59
2021/10/22 07:20:01;;;;;;;18.95;2.72;;;;;;;;;;5074704;28;20068;-60
2021/10/22 07:22:32;;;;;;;13.80;2.78;;;;;;;;;;5079481;28;20189;-60
2021/10/22 07:24:58;;;;;;;16.35;2.60;;;;;;;;;;5076536;28;20049;-60
2021/10/22 07:27:24;;;;;;;19.48;2.65;;;;;;;;;;5069762;28;20385;-59
2021/10/22 07:29:50;;;;;;;24.95;3.58;;;;;;;;;;5077752;28;20037;-59
2021/10/22 07:32:16;;;;;;;11.77;2.20;;;;;;;;;;5072438;28;20505;-59
2021/10/22 07:34:43;;;;;;;9.80;2.10;;;;;;;;;;5074875;28;20049;-60
2021/10/22 07:37:09;;;;;;;17.17;3.42;;;;;;;;;;5077303;28;20048;-60
2021/10/22 07:39:35;;;;;;;17.67;2.65;;;;;;;;;;5079764;28;20485;-61
2021/10/22 07:42:01;;;;;;;17.35;3.10;;;;;;;;;;5085714;28;20113;-61
2021/10/22 07:44:27;;;;;;;13.63;2.53;;;;;;;;;;5086956;28;20033;-60
2021/10/22 07:46:54;;;;;;;12.35;2.83;;;;;;;;;;5080359;28;20568;-68
2021/10/22 07:49:22;;;;;;;14.93;2.22;;;;;;;;;;5075289;28;20056;-68
2021/10/22 07:51:48;;;;;;;18.10;3.03;;;;;;;;;;5076624;28;20047;-69
2021/10/22 07:54:14;;;;;;;15.82;2.90;;;;;;;;;;5078173;28;20104;-70
2021/10/22 07:56:43;;;;;;;15.32;2.95;;;;;;;;;;5078332;28;20040;-67
2021/10/22 07:59:10;;;;;;;12.10;2.17;;;;;;;;;;5074655;28;20044;-69
2021/10/22 08:01:36;;;;;;;11.90;2.40;;;;;;;;;;5076471;28;20048;-62
2021/10/22 08:04:03;;;;;;;6.05;1.58;;;;;;;;;;5083764;28;20048;-62
2021/10/22 08:06:30;;;;;;;6.47;1.70;;;;;;;;;;5079677;28;20063;-61
2021/10/22 08:08:56;;;;;;;10.75;1.92;;;;;;;;;;5076912;28;20048;-61
2021/10/22 08:11:23;;;;;;;13.50;2.50;;;;;;;;;;5074376;28;20040;-62
2021/10/22 08:13:49;;;;;;;5.50;1.92;;;;;;;;;;5075114;28;20049;-61
2021/10/22 08:16:15;;;;;;;9.30;2.53;;;;;;;;;;5091347;28;20051;-62
2021/10/22 08:18:42;;;;;;;16.75;2.33;;;;;;;;;;5081709;28;20048;-62
2021/10/22 08:21:22;;;;;;;10.63;2.17;;;;;;;;;;5072440;28;20040;-67
2021/10/22 08:23:49;;;;;;;13.93;2.80;;;;;;;;;;5094862;28;20161;-61
2021/10/22 08:26:16;;;;;;;16.33;2.28;;;;;;;;;;5085576;28;20209;-62
2021/10/22 08:28:42;;;;;;;14.30;3.03;;;;;;;;;;5077651;28;20041;-63
2021/10/22 08:31:08;;;;;;;14.00;2.70;;;;;;;;;;5084200;28;20068;-62
2021/10/22 08:33:34;;;;;;;15.52;2.25;;;;;;;;;;5081189;28;20037;-62
2021/10/22 08:36:01;;;;;;;10.32;2.40;;;;;;;;;;5073663;28;20068;-62
2021/10/22 08:38:27;;;;;;;11.70;2.78;;;;;;;;;;5084098;28;20048;-62
2021/10/22 08:40:54;;;;;;;10.40;2.70;;;;;;;;;;5067093;28;20066;-62
2021/10/22 08:43:20;;;;;;;11.85;2.47;;;;;;;;;;5077747;28;20059;-62
2021/10/22 08:45:48;;;;;;;16.95;3.10;;;;;;;;;;5079005;28;20036;-62
2021/10/22 08:48:15;;;;;;;10.63;2.58;;;;;;;;;;5080636;28;20433;-61
2021/10/22 08:50:41;;;;;;;16.73;3.22;;;;;;;;;;5080155;28;20047;-62
2021/10/22 08:53:07;;;;;;;25.17;2.72;;;;;;;;;;5085524;28;20088;-62
2021/10/22 08:55:33;;;;;;;24.00;3.03;;;;;;;;;;5088065;28;20112;-62
2021/10/22 08:58:01;;;;;;;9.43;2.60;;;;;;;;;;5085021;28;20040;-62
2021/10/22 09:00:27;;;;;;;16.00;2.35;;;;;;;;;;5080309;28;20299;-63
2021/10/22 09:02:53;;;;;;;14.63;2.20;;;;;;;;;;5081214;28;20079;-62
2021/10/22 09:05:24;;;;;;;13.57;2.63;;;;;;;;;;5087273;28;20040;-62
2021/10/22 09:07:51;;;;;;;10.43;2.05;;;;;;;;;;5085243;28;20044;-62
2021/10/22 09:10:19;;;;;;;14.27;2.73;;;;;;;;;;5083416;28;20059;-62
2021/10/22 09:12:47;;;;;;;17.33;2.33;;;;;;;;;;5084118;28;20553;-62
2021/10/22 09:15:15;;;;;;;9.65;1.95;;;;;;;;;;5086603;28;20044;-62
2021/10/22 09:17:42;;;;;;;11.55;3.05;;;;;;;;;;5086513;28;20596;-62
2021/10/22 09:20:12;;;;;;;17.02;2.13;;;;;;;;;;5087998;28;20784;-63
2021/10/22 09:22:38;;;;;;;18.98;3.17;;;;;;;;;;5088669;28;20701;-63
2021/10/22 09:25:16;;;;;;;11.90;2.17;;;;;;;;;;5086064;28;20044;-62
2021/10/22 09:28:03;;;;;;;17.05;2.95;;;;;;;;;;5085932;28;20108;-62
2021/10/22 09:30:41;;;;;;;16.95;2.80;;;;;;;;;;5092656;28;20419;-63
2021/10/22 09:33:18;;;;;;;7.20;2.20;;;;;;;;;;5085516;28;20051;-62
2021/10/22 09:35:46;;;;;;;18.10;2.72;;;;;;;;;;5085271;28;20048;-61
2021/10/22 09:38:23;;;;;;;19.58;3.50;;;;;;;;;;5083359;28;20055;-70
2021/10/22 09:40:52;;;;;;;18.95;2.78;;;;;;;;;;5084312;28;20056;-61
2021/10/22 09:43:20;;;;;;;17.50;2.70;;;;;;;;;;5083001;28;20045;-61
2021/10/22 09:45:47;;;;;;;14.88;2.30;;;;;;;;;;5082802;28;20560;-61
2021/10/22 09:48:14;;;;;;;;;;;;;;;;;;5087795;28;20056;-61
2021/10/22 09:50:40;;;;;;;11.20;1.52;;;;;;;;;;5082871;28;19950;-72
2021/10/22 09:53:27;;;;;;;16.05;2.75;;;;;;;;;;5087916;28;20507;-63
2021/10/22 09:56:09;;;;;;;18.70;1.88;;;;;;;;;;5081994;28;20515;-64
2021/10/22 09:58:36;;;;;;;18.42;2.70;;;;;;;;;;5077794;28;20064;-62
2021/10/22 10:01:06;;;;;;;14.77;2.60;;;;;;;;;;5082270;28;20845;-66
2021/10/22 10:03:36;;;;;;;11.40;2.25;;;;;;;;;;5084767;28;20091;-63
2021/10/22 10:06:04;;;;;;;21.00;2.40;;;;;;;;;;5082382;28;20044;-67
2021/10/22 10:08:30;;;;;;;;;;;;;;;;;;5098460;28;20051;-72
2021/10/22 10:10:56;;;;;;;22.40;3.58;;;;;;;;;;5084100;28;19924;-72
2021/10/22 10:13:22;;;;;;;11.77;2.35;;;;;;;;;;5076570;28;20036;-71
2021/10/22 10:15:48;;;;;;;13.20;1.83;;;;;;;;;;5083992;28;20202;-71
2021/10/22 10:18:18;;;;;;;14.40;2.20;;;;;;;;;;5080795;28;20074;-69
2021/10/22 10:20:48;;;;;;;18.58;3.17;;;;;;;;;;5078455;28;20056;-72
2021/10/22 10:23:15;;;;;;;7.28;1.70;;;;;;;;;;5095161;28;20064;-70
2021/10/22 10:25:41;;;;;;;7.03;1.80;;;;;;;;;;5081793;28;20120;-70
2021/10/22 10:28:07;;;;;;;22.15;2.47;;;;;;;;;;5080919;28;20198;-66
2021/10/22 10:30:34;;;;;;;16.48;2.70;;;;;;;;;;5078476;28;20051;-66
2021/10/22 10:33:01;;;;;;;21.83;2.53;;;;;;;;;;5076104;28;20052;-66
2021/10/22 10:35:33;;;;;;;22.87;3.10;;;;;;;;;;5073430;28;20065;-74
2021/10/22 10:37:59;;;;;;;18.83;3.10;;;;;;;;;;5083046;28;20072;-74
2021/10/22 10:40:32;;;;;;;17.08;3.63;;;;;;;;;;5083544;28;20104;-67
2021/10/22 10:43:00;;;;;;;23.25;3.90;;;;;;;;;;5078539;28;20079;-72
2021/10/22 10:45:26;;;;;;;27.80;3.00;;;;;;;;;;5070037;28;20033;-68
2021/10/22 10:47:54;;;;;;;27.83;3.42;;;;;;;;;;5077248;28;20048;-68
2021/10/22 10:50:24;;;;;;;25.23;2.80;;;;;;;;;;5079074;28;20056;-69
2021/10/22 10:52:51;;;;;;;20.02;2.72;;;;;;;;;;5081836;28;20044;-72
2021/10/22 10:55:40;;;;;;;27.42;3.55;;;;;;;;;;5074455;28;20044;-69
2021/10/22 10:58:08;;;;;;;20.15;3.60;;;;;;;;;;5076278;28;20047;-64
2021/10/22 11:00:37;;;;;;;10.48;1.73;;;;;;;;;;5077183;28;20043;-63
2021/10/22 11:03:04;;;;;;;10.07;2.00;;;;;;;;;;5071496;28;20290;-64
2021/10/22 11:05:46;;;;;;;8.82;1.83;;;;;;;;;;5078833;28;20040;-60
2021/10/22 11:08:14;;;;;;;12.02;2.00;;;;;;;;;;5071260;28;20051;-70
2021/10/22 11:11:00;;;;;;;18.95;2.17;;;;;;;;;;5079063;28;20071;-76
2021/10/22 11:13:45;;;;;;;18.20;2.80;;;;;;;;;;5079216;28;20052;-73
2021/10/22 11:16:36;;;;;;;25.90;2.75;;;;;;;;;;5079263;28;20049;-75
2021/10/22 11:19:06;;;;;;;18.55;2.67;;;;;;;;;;5078130;28;20048;-65
2021/10/22 11:21:35;;;;;;;14.50;3.67;;;;;;;;;;5079609;28;20573;-65
2021/10/22 11:24:01;;;;;;;15.57;2.40;;;;;;;;;;5078705;28;20127;-64
2021/10/22 11:26:28;;;;;;;14.27;2.70;;;;;;;;;;5071672;28;20080;-66
2021/10/22 11:28:59;;;;;;;11.68;2.05;;;;;;;;;;5078708;28;20139;-64
2021/10/22 11:31:39;;;;;;;14.15;1.60;;;;;;;;;;5075863;28;20055;-62
2021/10/22 11:34:08;;;;;;;10.45;1.90;;;;;;;;;;5076709;28;20048;-73
2021/10/22 11:36:35;;;;;;;9.52;1.95;;;;;;;;;;5088078;28;20378;-74
2021/10/22 11:39:02;;;;;;;15.73;3.08;;;;;;;;;;5082685;28;20052;-70
2021/10/22 11:41:28;;;;;;;18.48;3.05;;;;;;;;;;5076320;28;20049;-68
2021/10/22 11:44:07;;;;;;;16.83;2.65;;;9.60;99.90;;;;;;5078506;28;20049;-70
2021/10/22 11:46:47;;;;;;;11.75;2.58;;;9.70;99.90;;;;;;5079471;28;20474;-63
2021/10/22 11:49:33;;;;;;;14.60;2.35;;;9.70;99.90;;;;;;5072486;28;20045;-61
2021/10/22 11:52:00;;;;;;;17.40;3.05;;;9.50;99.90;;;;;;5076446;28;20036;-64
2021/10/22 11:54:52;;;;;;;12.88;2.55;;;9.80;99.90;;;;;;5080047;28;20040;-62
2021/10/22 11:57:20;;;;;;;12.55;3.03;;;;;;;;;;5072790;28;20053;-64
2021/10/22 11:59:57;;;;;;;18.45;2.20;;;9.30;99.90;;;;;;5078575;28;20048;-62
2021/10/22 12:02:27;;;;;;;15.38;2.17;;;9.10;99.90;;;;;;5078742;28;20041;-64
2021/10/22 12:05:04;;;;;;;16.65;3.33;;;9.30;99.90;;;;;;5078298;28;20462;-68
2021/10/22 12:07:35;;;;;;;16.77;2.67;;;;;;;;;;5077006;28;20060;-67
2021/10/22 12:10:02;;;;;;;11.63;2.03;;;;;;;;;;5076750;28;20136;-66
2021/10/22 12:12:39;;;;;;;15.60;2.00;;;;;;;;;;5078170;28;20045;-68
2021/10/22 12:15:06;;;;;;;16.70;3.08;;;;;;;;;;5078979;28;20040;-68
2021/10/22 12:17:33;;;;;;;14.90;2.33;;;;;;;;;;5077900;28;20067;-61
2021/10/22 12:20:04;;;;;;;13.93;2.08;;;;;;;;;;5078813;28;20055;-62
2021/10/22 12:22:33;;;;;;;12.30;2.15;;;;;;;;;;5079790;28;20083;-63
2021/10/22 12:25:03;;;;;;;14.32;1.80;;;;;;;;;;5077491;28;20059;-61
2021/10/22 12:27:29;;;;;;;7.55;2.08;;;;;;;;;;5078786;28;20094;-62
2021/10/22 12:29:57;;;;;;;15.52;3.53;;;;;;;;;;5081482;28;20048;-62
2021/10/22 12:32:31;;;;;;;10.35;1.75;;;;;;;;;;5082959;28;20120;-62
2021/10/22 12:34:57;;;;;;;6.63;1.50;;;;;;;;;;5079289;28;20048;-71
2021/10/22 12:37:43;;;;;;;13.52;2.25;;;;;;;;;;5081363;28;20045;-69
2021/10/22 12:40:14;;;;;;;15.20;2.55;;;;;;;;;;5085883;28;20049;-78
2021/10/22 12:42:41;;;;;;;17.58;2.70;;;;;;;;;;5086046;28;20038;-76
2021/10/22 12:45:15;;;;;;;19.27;2.60;;;;;;;;;;5083209;28;20098;-76
2021/10/22 12:47:41;;;;;;;12.75;1.88;;;;;;;;;;5085847;28;20170;-66
2021/10/22 12:50:07;;;;;;;18.02;3.25;;;;;;;;;;5080694;28;20041;-67
2021/10/22 12:52:33;;;;;;;14.45;2.20;;;;;;;;;;5084992;28;20107;-67
2021/10/22 12:55:00;;;;;;;19.83;2.38;;;;;;;;;;5084688;28;20071;-67
2021/10/22 12:57:26;;;;;;;12.25;2.03;;;;;;;;;;5077301;28;20097;-62
2021/10/22 13:00:16;;;;;;;14.63;2.40;;;;;;;;;;5077623;28;20036;-63
2021/10/22 13:02:42;;;;;;;7.60;2.00;;;;;;;;;;5092453;28;20095;-62
2021/10/22 13:05:10;;;;;;;10.93;1.83;;;;;;;;;;5086396;28;20051;-62
2021/10/22 13:07:59;;;;;;;5.95;1.42;;;;;;;;;;5079914;28;20052;-67
2021/10/22 13:10:51;;;;;;;5.55;1.50;;;;;;;;;;5077279;28;20051;-76
2021/10/22 13:21:27;;;;;;;12.13;1.35;;;;;;;;;;5087783;28;20040;-64
2021/10/22 13:23:53;;;;;;;9.45;2.15;;;;;;;;;;5080080;28;20056;-64
2021/10/22 13:26:20;;;;;;;10.52;1.92;;;;;;;;;;5097187;28;20603;-64
2021/10/22 13:28:49;;;;;;;18.65;2.88;;;;;;;;;;5078786;28;20048;-71
2021/10/22 13:31:18;;;;;;;14.77;1.88;;;;;;;;;;5084414;28;20064;-72
2021/10/22 13:33:44;;;;;;;16.63;2.65;;;;;;;;;;5079990;28;20052;-61
2021/10/22 13:36:10;;;;;;;11.35;1.50;;;;;;;;;;5072570;28;20131;-64
2021/10/22 13:38:36;;;;;;;8.32;1.58;;;;;;;;;;5079552;28;20048;-64
2021/10/22 13:41:03;;;;;;;7.20;1.40;;;;;;;;;;5077319;28;20040;-63
2021/10/22 13:43:29;;;;;;;11.13;1.92;;;;;;;;;;5072855;28;20048;-64
2021/10/22 13:45:55;;;;;;;9.88;1.85;;;;;;;;;;5065972;28;20238;-64
2021/10/22 13:48:22;;;;;;;6.65;2.42;;;;;;;;;;5083850;28;20516;-66
2021/10/22 13:50:48;;;;;;;12.20;2.10;;;;;;;;;;5064659;28;20063;-64
2021/10/22 13:53:23;;;;;;;5.75;1.55;;;;;;;;;;5070077;28;20048;-65
2021/10/22 13:55:49;;;;;;;8.40;1.77;;;;;;;;;;5079040;28;20404;-65
2021/10/22 13:58:15;;;;;;;7.13;1.73;;;;;;;;;;5074336;28;20140;-74
2021/10/22 14:00:41;;;;;;;9.57;1.88;;;;;;;;;;4986487;28;20098;-66
2021/10/22 14:03:09;;;;;;;8.73;1.95;;;;;;;;;;5081275;28;20037;-66
2021/10/22 14:05:37;;;;;;;13.65;2.97;;;;;;;;;;5077658;28;20045;-66
2021/10/22 14:08:03;;;;;;;10.57;1.85;;;;;;;;;;5083977;28;20040;-65
2021/10/22 14:10:30;;;;;;;17.02;2.25;;;;;;;;;;5081689;28;20063;-65
2021/10/22 14:13:09;;;;;;;13.18;2.40;;;;;;;;;;5077761;28;20066;-66
2021/10/22 14:31:20;;;;;;;12.40;2.30;;;;;;;;;;5080796;28;20052;-71
2021/10/22 14:33:46;;;;;;;13.45;2.22;;;;;;;;;;5078381;28;20045;-68
2021/10/22 14:36:12;;;;;;;12.23;1.98;;;;;;;;;;5076220;28;20048;-69
2021/10/22 14:38:38;;;;;;;12.77;2.70;;;;;;;;;;5069863;28;20052;-66
2021/10/22 14:41:05;;;;;;;10.05;1.92;;;;;;;;;;5072928;28;20052;-67
2021/10/22 14:43:35;;;;;;;6.90;2.00;;;;;;;;;;5074181;28;20121;-63
2021/10/22 14:48:29;;;;;;;13.98;2.00;;;;;;;;;;5079189;28;20060;-66
2021/10/22 14:50:57;;;;;;;;;;;;;;;;;;5075781;28;20142;-65
2021/10/22 14:53:38;;;;;;;13.68;3.30;;;;;;;;;;5075255;28;19928;-66
2021/10/22 14:56:05;;;;;;;15.35;2.90;;;;;;;;;;5079766;28;20071;-63
2021/10/22 14:58:32;;;;;;;14.23;1.70;;;;;;;;;;5086310;28;20048;-67
2021/10/22 15:01:01;;;;;;;16.08;2.97;;;;;;;;;;5081817;28;20036;-64
2021/10/22 15:03:27;;;;;;;12.70;2.90;;;;;;;;;;5078628;28;20045;-65
2021/10/22 15:05:53;;;;;;;11.40;2.35;;;;;;;;;;5083180;28;20082;-64
2021/10/22 15:08:19;;;;;;;11.07;2.05;;;;;;;;;;5082363;28;20068;-68
2021/10/22 15:10:52;;;;;;;8.48;1.83;;;;;;;;;;5091443;28;20049;-65